Observations for Trim Market St
| Time | AQI | Temp °C | Hum % | Pres Pa | CO μg/m³ | H₂S μg/m³ | NO μg/m³ | NO₂ μg/m³ | O₃ μg/m³ | SO₂ μg/m³ | PM1 μg/m³ | PM2.5 μg/m³ | PM10 μg/m³ |
|---|---|---|---|---|---|---|---|---|---|---|---|---|---|
| Saturday 22 August 2026 | |||||||||||||
| 04:47 | 2 | 12.7 | 70 | 56,116 | 0.37 | 0 | 3.45 | 8.05 | 57.17 | 0 | 2.14 | 3.54 | 6.28 |
| 04:46 | 2 | 12.7 | 70 | 56,117 | 0.37 | 0 | 2.72 | 7.75 | 53.86 | 0 | 2.85 | 4.03 | 6.9 |
| 04:45 | 2 | 12.7 | 70 | 56,116 | 0.37 | 0 | 2.73 | 9.3 | 72.81 | 0 | 2.14 | 3.06 | 5.65 |
| 04:44 | 2 | 12.7 | 70 | 56,114 | 0.38 | 0 | 2.82 | 8.6 | 56.25 | 0 | 2.14 | 4.03 | 6.28 |
| 04:43 | 2 | 12.7 | 70 | 56,112 | 0.37 | 0 | 2.9 | 8.23 | 61.91 | 0 | 1.43 | 3.55 | 5.65 |
| 04:42 | 2 | 12.7 | 70 | 56,111 | 0.38 | 0 | 2.98 | 8.6 | 55.89 | 0 | 2.14 | 4.03 | 6.28 |
| 04:33 | 2 | 12.7 | 70 | 56,138 | 0.36 | 0 | 2.95 | 8.54 | 64.24 | 0 | 1.43 | 3.56 | 7.53 |
| 04:32 | 2 | 12.8 | 70 | 56,152 | 0.36 | 0 | 2.71 | 8.33 | 65.34 | 0 | 1.43 | 4.53 | 8.16 |
| 04:30 | 2 | 12.8 | 69 | 56,178 | 0.35 | 0 | 2.84 | 9.41 | 68.21 | 0 | 2.14 | 3.08 | 5.64 |
| 04:29 | 2 | 12.8 | 69 | 56,199 | 0.36 | 0 | 3.34 | 8.84 | 70.16 | 0 | 1.43 | 3.57 | 6.27 |
| 04:22 | 2 | 12.8 | 69 | 56,359 | 0.35 | 0 | 2.96 | 8.57 | 64.93 | 0 | 1.43 | 3.59 | 6.26 |
| 04:21 | 2 | 12.8 | 69 | 56,386 | 0.35 | 0 | 2.96 | 8.96 | 69.12 | 0 | 2.85 | 4.57 | 7.53 |
| 04:20 | 2 | 12.8 | 69 | 56,415 | 0.35 | 0 | 3.38 | 8.96 | 61.78 | 0 | 1.43 | 3.6 | 5.63 |
| 04:19 | 2 | 12.8 | 69 | 56,446 | 0.35 | 0 | 3.2 | 7.95 | 62.79 | 0 | 0.71 | 2.63 | 4.36 |
| 04:18 | 2 | 12.8 | 69 | 56,468 | 0.34 | 0 | 4.65 | 8.46 | 62.06 | 0 | 1.43 | 3.12 | 4.99 |
| 04:17 | 2 | 12.8 | 69 | 56,497 | 0.34 | 0 | 5.04 | 8.46 | 64.47 | 0 | 2.14 | 3.12 | 6.26 |
| 04:16 | 2 | 12.8 | 68 | 56,524 | 0.36 | 0 | 4.62 | 9.85 | 62.87 | 0 | 2.85 | 5.08 | 8.8 |
| 04:15 | 2 | 12.8 | 68 | 56,557 | 0.37 | 0 | 4.37 | 13.34 | 43.83 | 0 | 1.43 | 3.62 | 5.62 |
| 04:14 | 2 | 12.9 | 68 | 56,590 | 0.33 | 0 | 4.45 | 8.28 | 68.61 | 0 | 1.43 | 2.65 | 4.35 |
| 04:13 | 2 | 12.9 | 68 | 56,621 | 0.33 | 0 | 3.78 | 8.38 | 66.02 | 0 | 2.14 | 3.13 | 4.98 |